createdAt,value
2018-12-08T00:00:26.740Z,81.32
2018-12-08T00:01:08.696Z,81.89
2018-12-08T00:01:50.379Z,81.98
2018-12-08T00:02:30.932Z,81.7
2018-12-08T00:03:11.515Z,80.94
2018-12-08T00:03:52.784Z,81.93
2018-12-08T00:04:33.136Z,81.46
2018-12-08T00:05:14.677Z,80.5
2018-12-08T00:05:55.194Z,80.46
2018-12-08T00:06:35.396Z,81.07
2018-12-08T00:07:15.852Z,81.26
2018-12-08T00:07:56.653Z,81.6
2018-12-08T00:08:37.391Z,81.84
2018-12-08T00:09:17.705Z,80.69
2018-12-08T00:09:58.300Z,80.94
2018-12-08T00:10:38.958Z,81.13
2018-12-08T00:11:19.555Z,81.51
2018-12-08T00:12:01.204Z,81.98
2018-12-08T00:12:41.104Z,81.41
2018-12-08T00:13:23.308Z,81.74
2018-12-08T00:14:03.989Z,80.41
2018-12-08T00:14:44.476Z,81.84
2018-12-08T00:15:24.940Z,80.69
2018-12-08T00:16:05.961Z,80.88
2018-12-08T00:16:46.300Z,80.27
2018-12-08T00:17:27.548Z,81.51
2018-12-08T00:18:08.087Z,81.23
2018-12-08T00:18:49.224Z,81.41
2018-12-08T00:19:29.761Z,81.07
2018-12-08T00:20:10.968Z,81.55
2018-12-08T00:20:52.866Z,80.69
2018-12-08T00:21:33.264Z,81.26
2018-12-08T00:22:13.640Z,81.36
2018-12-08T00:22:54.393Z,81.36
2018-12-08T00:23:34.581Z,79.93
2018-12-08T00:24:15.622Z,79.55
2018-12-08T00:24:56.852Z,80.22
2018-12-08T00:25:37.216Z,80.22
2018-12-08T00:26:17.705Z,80.69
2018-12-08T00:26:58.563Z,79.93
2018-12-08T00:27:39.951Z,79.83
2018-12-08T00:28:20.519Z,80.98
2018-12-08T00:29:01.765Z,80.22
2018-12-08T00:29:42.095Z,80.5
2018-12-08T00:30:22.782Z,79.64
2018-12-08T00:31:03.292Z,79.93
2018-12-08T00:31:43.752Z,79.55
2018-12-08T00:32:24.246Z,80.41
2018-12-08T00:33:05.715Z,79.55
2018-12-08T00:33:46.771Z,79.41
2018-12-08T00:34:28.095Z,79.7
2018-12-08T00:35:08.605Z,80.84
2018-12-08T00:35:49.011Z,80.55
2018-12-08T00:36:29.500Z,80.84
2018-12-08T00:37:10.079Z,81.23
2018-12-08T00:37:50.741Z,80.27
2018-12-08T00:38:31.485Z,81.03
2018-12-08T00:39:11.898Z,81.32
2018-12-08T00:39:53.109Z,80.08
2018-12-08T00:40:33.475Z,79.89
2018-12-08T00:41:14.211Z,79.7
2018-12-08T00:41:55.126Z,79.41
2018-12-08T00:42:36.450Z,79.22
2018-12-08T00:43:17.338Z,80.08
2018-12-08T00:43:58.589Z,80.65
2018-12-08T00:44:39.581Z,81.98
2018-12-08T00:45:20.590Z,81.32
2018-12-08T00:46:01.874Z,81.13
2018-12-08T00:46:42.227Z,80.65
2018-12-08T00:47:22.927Z,80.41
2018-12-08T00:48:03.666Z,80.69
2018-12-08T00:48:44.830Z,81.32
2018-12-08T00:49:24.701Z,81.7
2018-12-08T00:50:05.048Z,82.84
2018-12-08T00:50:46.822Z,83.41
2018-12-08T00:51:27.494Z,83.32
2018-12-08T00:52:07.824Z,83.36
2018-12-08T00:52:48.166Z,83.84
2018-12-08T00:53:28.472Z,83.93
2018-12-08T00:54:08.960Z,83.84
2018-12-08T00:54:49.478Z,83.17
2018-12-08T00:55:30.571Z,82.89
2018-12-08T00:56:13.419Z,82.79
2018-12-08T00:56:55.562Z,82.5
2018-12-08T00:57:36.351Z,81.93
2018-12-08T00:58:16.923Z,82.69
2018-12-08T00:58:57.556Z,82.98
2018-12-08T00:59:37.982Z,81.36
2018-12-08T01:00:18.391Z,82.21
2018-12-08T01:00:59.043Z,81.55
2018-12-08T01:01:39.756Z,81.46
2018-12-08T01:02:20.035Z,79.7
2018-12-08T01:03:01.171Z,80.55
2018-12-08T01:03:43.512Z,80.46
2018-12-08T01:04:23.871Z,80.65
2018-12-08T01:05:04.375Z,82.5
2018-12-08T01:05:44.999Z,80.5
2018-12-08T01:06:25.317Z,81.55
2018-12-08T01:07:06.051Z,81.46
2018-12-08T01:07:46.546Z,79.83
2018-12-08T01:08:27.141Z,78.88
2018-12-08T01:09:07.462Z,79.36
2018-12-08T01:09:47.695Z,80.36
2018-12-08T01:10:29.157Z,79.55
2018-12-08T01:11:09.508Z,79.6
2018-12-08T01:11:49.951Z,81.03
2018-12-08T01:12:30.495Z,80.65
2018-12-08T01:13:10.886Z,79.32
2018-12-08T01:13:51.296Z,80.08
2018-12-08T01:14:32.094Z,79.8
2018-12-08T01:15:12.805Z,80.94
2018-12-08T01:15:57.059Z,81.23
2018-12-08T01:16:37.715Z,80.75
2018-12-08T01:17:19.122Z,80.65
2018-12-08T01:17:59.460Z,80.65
2018-12-08T01:18:40.465Z,79.22
2018-12-08T01:19:20.855Z,80.75
2018-12-08T01:20:01.326Z,80.41
2018-12-08T01:20:41.908Z,80.02
2018-12-08T01:21:22.868Z,79.46
2018-12-08T01:22:04.445Z,79.27
2018-12-08T01:22:45.363Z,78.75
2018-12-08T01:23:25.749Z,80.02
2018-12-08T01:24:07.192Z,79.64
2018-12-08T01:24:47.920Z,79.46
2018-12-08T01:25:28.817Z,78.88
2018-12-08T01:26:10.259Z,78.88
2018-12-08T01:26:51.194Z,79.74
2018-12-08T01:27:32.143Z,79.55
2018-12-08T01:28:12.608Z,78.46
2018-12-08T01:28:53.701Z,79.03
2018-12-08T01:29:35.131Z,79.55
2018-12-08T01:30:16.058Z,79.17
2018-12-08T01:30:57.363Z,78.59
2018-12-08T01:31:38.917Z,78.75
2018-12-08T01:32:20.356Z,79.22
2018-12-08T01:33:00.773Z,79.32
2018-12-08T01:33:42.707Z,80.41
2018-12-08T01:34:23.607Z,80.12
2018-12-08T01:35:04.079Z,79.27
2018-12-08T01:35:46.071Z,79.64
2018-12-08T01:36:25.807Z,78.75
2018-12-08T01:37:06.954Z,79.03
2018-12-08T01:37:47.488Z,80.46
2018-12-08T01:38:27.778Z,79.7
2018-12-08T01:39:08.726Z,79.41
2018-12-08T01:39:49.314Z,80.46
2018-12-08T01:40:29.957Z,80.84
2018-12-08T01:41:10.381Z,80.27
2018-12-08T01:41:52.388Z,80.36
2018-12-08T01:42:33.590Z,80.46
2018-12-08T01:43:14.572Z,80.18
2018-12-08T01:43:55.991Z,81.03
2018-12-08T01:44:37.970Z,81.89
2018-12-08T01:45:22.940Z,80.46
2018-12-08T01:46:03.361Z,80.46
2018-12-08T01:46:44.174Z,80.36
2018-12-08T01:47:25.016Z,79.51
2018-12-08T01:48:05.742Z,79.99
2018-12-08T01:48:47.597Z,81.13
2018-12-08T01:49:27.931Z,80.65
2018-12-08T01:50:10.559Z,80.84
2018-12-08T01:50:51.953Z,81.13
2018-12-08T01:51:32.407Z,81.51
2018-12-08T01:52:13.967Z,81.03
2018-12-08T01:52:54.489Z,80.36
2018-12-08T01:53:36.496Z,80.36
2018-12-08T01:54:20.361Z,80.46
2018-12-08T01:55:00.399Z,80.84
2018-12-08T01:55:40.916Z,79.99
2018-12-08T01:56:21.475Z,80.65
2018-12-08T01:57:02.475Z,81.03
2018-12-08T01:57:42.980Z,81.23
2018-12-08T01:58:23.356Z,81.23
2018-12-08T01:59:03.722Z,81.13
2018-12-08T01:59:44.190Z,80.55
2018-12-08T02:00:24.918Z,79.6
2018-12-08T02:01:05.071Z,80.18
2018-12-08T02:01:45.504Z,79.7
2018-12-08T02:02:26.699Z,79.89
2018-12-08T02:03:07.509Z,80.08
2018-12-08T02:03:48.949Z,81.13
2018-12-08T02:04:29.860Z,80.36
2018-12-08T02:05:10.973Z,81.03
2018-12-08T02:05:52.021Z,80.65
2018-12-08T02:06:32.241Z,79.8
2018-12-08T02:07:12.886Z,79.7
2018-12-08T02:07:54.932Z,79.41
2018-12-08T02:08:35.387Z,80.27
2018-12-08T02:09:16.108Z,79.6
2018-12-08T02:09:56.845Z,78.75
2018-12-08T02:10:38.076Z,79.41
2018-12-08T02:11:24.813Z,80.27
2018-12-08T02:11:58.971Z,80.18
2018-12-08T02:12:40.205Z,80.36
2018-12-08T02:13:20.771Z,80.84
2018-12-08T02:14:01.650Z,80.75
2018-12-08T02:14:42.454Z,79.8
2018-12-08T02:15:22.756Z,79.22
2018-12-08T02:16:03.247Z,79.51
2018-12-08T02:16:43.806Z,78.94
2018-12-08T02:17:24.326Z,79.7
2018-12-08T02:18:04.635Z,79.13
2018-12-08T02:18:45.045Z,79.13
2018-12-08T02:19:27.214Z,79.13
2018-12-08T02:20:07.540Z,79.41
2018-12-08T02:20:50.686Z,78.88
2018-12-08T02:21:31.049Z,78.56
2018-12-08T02:22:12.741Z,78.37
2018-12-08T02:22:53.424Z,79.41
2018-12-08T02:23:34.702Z,77.8
2018-12-08T02:24:15.192Z,77.89
2018-12-08T02:24:57.131Z,78.27
2018-12-08T02:25:37.660Z,78.12
2018-12-08T02:26:20.763Z,78.17
2018-12-08T02:27:01.763Z,77.89
2018-12-08T02:27:42.919Z,77.98
2018-12-08T02:28:25.174Z,78.94
2018-12-08T02:29:05.910Z,78.17
2018-12-08T02:29:46.611Z,78.85
2018-12-08T02:30:26.843Z,78.37
2018-12-08T02:31:08.313Z,77.89
2018-12-08T02:31:47.760Z,78.65
2018-12-08T02:32:30.119Z,78.08
2018-12-08T02:33:12.820Z,78.75
2018-12-08T02:33:52.620Z,79.22
2018-12-08T02:34:33.102Z,78.85
2018-12-08T02:35:14.381Z,79.03
2018-12-08T02:35:55.461Z,79.22
2018-12-08T02:36:37.002Z,79.32
2018-12-08T02:37:17.486Z,79.13
2018-12-08T02:38:00.674Z,79.89
2018-12-08T02:38:42.169Z,78.27
2018-12-08T02:39:21.681Z,78.94
2018-12-08T02:40:02.128Z,78.37
2018-12-08T02:40:43.090Z,78.75
2018-12-08T02:41:25.163Z,79.89
2018-12-08T02:42:06.680Z,79.32
2018-12-08T02:42:47.027Z,79.22
2018-12-08T02:43:29.022Z,79.13
2018-12-08T02:44:09.588Z,79.03
2018-12-08T02:44:49.946Z,78.85
2018-12-08T02:45:30.372Z,77.98
2018-12-08T02:46:12.600Z,78.94
2018-12-08T02:46:53.165Z,78.75
2018-12-08T02:47:34.989Z,77.61
2018-12-08T02:48:15.553Z,78.56
2018-12-08T02:48:56.085Z,78.75
2018-12-08T02:49:36.416Z,79.03
2018-12-08T02:50:17.344Z,79.22
2018-12-08T02:50:59.123Z,78.75
2018-12-08T02:51:41.612Z,79.22
2018-12-08T02:52:21.969Z,78.85
2018-12-08T02:53:03.260Z,77.98
2018-12-08T02:53:44.693Z,78.17
2018-12-08T02:54:25.209Z,77.98
2018-12-08T02:55:05.620Z,78.27
2018-12-08T02:55:46.630Z,79.41
2018-12-08T02:56:27.114Z,79.13
2018-12-08T02:57:08.309Z,79.22
2018-12-08T02:57:49.103Z,78.85
2018-12-08T02:58:29.628Z,79.13
2018-12-08T02:59:11.714Z,79.22
2018-12-08T02:59:53.206Z,79.41
2018-12-08T03:00:34.404Z,79.8
2018-12-08T03:01:15.637Z,79.03
2018-12-08T03:01:55.924Z,79.51
2018-12-08T03:02:39.286Z,79.22
2018-12-08T03:03:19.853Z,80.46
2018-12-08T03:04:00.886Z,79.99
2018-12-08T03:04:41.358Z,80.08
2018-12-08T03:05:21.900Z,79.89
2018-12-08T03:06:02.737Z,78.85
2018-12-08T03:06:43.992Z,79.7
2018-12-08T03:07:24.543Z,79.03
2018-12-08T03:08:05.478Z,79.8
2018-12-08T03:08:45.408Z,80.08
2018-12-08T03:09:26.818Z,80.69
2018-12-08T03:10:09.846Z,79.93
2018-12-08T03:10:56.378Z,79.93
2018-12-08T03:11:36.882Z,79.41
2018-12-08T03:12:19.619Z,79.46
2018-12-08T03:13:01.094Z,79.74
2018-12-08T03:13:41.775Z,79.17
2018-12-08T03:14:22.486Z,79.36
2018-12-08T03:15:03.070Z,79.55
2018-12-08T03:15:45.201Z,80.12
2018-12-08T03:16:26.828Z,79.55
2018-12-08T03:17:07.758Z,80.12
2018-12-08T03:17:48.287Z,79.64
2018-12-08T03:18:28.871Z,79.74
2018-12-08T03:19:12.296Z,80.6
2018-12-08T03:19:52.406Z,80.02
2018-12-08T03:20:34.659Z,79.55
2018-12-08T03:21:15.753Z,79.17
2018-12-08T03:21:58.447Z,79.17
2018-12-08T03:22:39.905Z,79.17
2018-12-08T03:23:20.923Z,79.46
2018-12-08T03:24:01.596Z,79.27
2018-12-08T03:24:42.008Z,79.27
2018-12-08T03:25:23.252Z,80.02
2018-12-08T03:26:03.507Z,79.41
2018-12-08T03:26:44.038Z,80.5
2018-12-08T03:27:24.469Z,80.12
2018-12-08T03:28:08.775Z,79.83
2018-12-08T03:28:49.664Z,79.36
2018-12-08T03:29:30.231Z,80.12
2018-12-08T03:30:13.511Z,79.64
2018-12-08T03:30:54.020Z,79.36
2018-12-08T03:31:37.607Z,79.07
2018-12-08T03:32:20.366Z,79.55
2018-12-08T03:33:00.872Z,80.12
2018-12-08T03:33:42.110Z,80.79
2018-12-08T03:34:23.687Z,79.46
2018-12-08T03:35:04.669Z,79.83
2018-12-08T03:35:45.546Z,78.98
2018-12-08T03:36:28.246Z,79.36
2018-12-08T03:37:08.877Z,79.55
2018-12-08T03:37:50.564Z,78.69
2018-12-08T03:38:31.086Z,78.69
2018-12-08T03:39:14.438Z,79.27
2018-12-08T03:39:54.904Z,78.59
2018-12-08T03:40:40.227Z,78.78
2018-12-08T03:41:20.889Z,79.36
2018-12-08T03:42:02.059Z,78.59
2018-12-08T03:42:44.441Z,78.88
2018-12-08T03:43:24.893Z,79.07
2018-12-08T03:44:06.815Z,79.13
2018-12-08T03:44:47.430Z,79.99
2018-12-08T03:45:29.500Z,80.08
2018-12-08T03:46:10.516Z,80.46
2018-12-08T03:46:51.064Z,80.36
2018-12-08T03:47:31.927Z,79.99
2018-12-08T03:48:12.745Z,80.55
2018-12-08T03:48:53.704Z,80.88
2018-12-08T03:49:36.473Z,80.98
2018-12-08T03:50:18.603Z,80.41
2018-12-08T03:51:00.321Z,79.36
2018-12-08T03:51:42.298Z,79.17
2018-12-08T03:52:23.568Z,79.36
2018-12-08T03:53:07.606Z,79.55
2018-12-08T03:53:48.199Z,79.55
2018-12-08T03:54:31.315Z,79.55
2018-12-08T03:55:14.220Z,79.64
2018-12-08T03:55:56.876Z,78.98
2018-12-08T03:56:38.998Z,79.17
2018-12-08T03:57:25.037Z,78.59
2018-12-08T03:58:06.018Z,79.27
2018-12-08T03:58:47.635Z,79.27
2018-12-08T03:59:30.476Z,79.55
2018-12-08T04:00:11.825Z,80.12
2018-12-08T04:00:53.876Z,78.59
2018-12-08T04:01:35.346Z,79.27
2018-12-08T04:02:16.462Z,78.98
2018-12-08T04:02:59.557Z,78.41
2018-12-08T04:03:40.527Z,78.41
2018-12-08T04:04:21.074Z,78.85
2018-12-08T04:05:02.954Z,78.88
2018-12-08T04:05:43.708Z,79.07
2018-12-08T04:06:24.395Z,79.27
2018-12-08T04:07:05.915Z,79.64
2018-12-08T04:07:47.513Z,79.83
2018-12-08T04:08:30.355Z,79.83
2018-12-08T04:09:11.375Z,79.07
2018-12-08T04:09:52.449Z,78.59
2018-12-08T04:10:32.574Z,78.12
2018-12-08T04:11:14.960Z,79.46
2018-12-08T04:11:58.495Z,78.41
2018-12-08T04:12:39.338Z,78.22
2018-12-08T04:13:21.163Z,78.98
2018-12-08T04:14:04.029Z,78.78
2018-12-08T04:14:44.965Z,78.88
2018-12-08T04:15:25.706Z,79.17
2018-12-08T04:16:06.397Z,79.36
2018-12-08T04:16:47.577Z,79.27
2018-12-08T04:17:28.727Z,78.5
2018-12-08T04:18:09.923Z,79.17
2018-12-08T04:18:52.145Z,79.07
2018-12-08T04:19:32.983Z,79.93
2018-12-08T04:20:14.827Z,79.93
2018-12-08T04:20:55.367Z,79.27
2018-12-08T04:21:36.487Z,78.98
2018-12-08T04:22:16.652Z,79.07
2018-12-08T04:22:58.272Z,78.12
2018-12-08T04:23:40.516Z,78.59
2018-12-08T04:24:21.601Z,79.46
2018-12-08T04:25:04.602Z,79.55
2018-12-08T04:25:45.020Z,78.98
2018-12-08T04:26:26.860Z,78.69
2018-12-08T04:27:07.415Z,78.12
2018-12-08T05:06:20.693Z,82.27
2018-12-08T05:07:01.010Z,82.37
2018-12-08T05:07:41.604Z,82.84
2018-12-08T05:08:21.782Z,83.13
2018-12-08T05:09:02.177Z,83.41
2018-12-08T05:09:43.262Z,83.8
2018-12-08T05:10:23.686Z,83.98
2018-12-08T05:11:04.054Z,85.6
2018-12-08T05:11:44.509Z,85.89
2018-12-08T05:12:24.921Z,86.55
2018-12-08T05:13:05.425Z,86.36
2018-12-08T05:13:45.855Z,86.84
2018-12-08T05:14:26.211Z,85.8
2018-12-08T05:15:06.645Z,86.55
2018-12-08T05:15:47.031Z,86.46
2018-12-08T05:16:27.429Z,88.08
2018-12-08T05:17:07.848Z,87.7
2018-12-08T05:17:48.394Z,86.65
2018-12-08T05:18:28.756Z,86.84
2018-12-08T05:19:09.237Z,86.51
2018-12-08T05:19:49.585Z,86.98
2018-12-08T05:20:29.998Z,86.41
2018-12-08T05:21:10.410Z,84.98
2018-12-08T05:21:50.844Z,84.88
2018-12-08T05:22:31.243Z,85.46
2018-12-08T05:23:12.462Z,84.31
2018-12-08T05:23:52.915Z,84.31
2018-12-08T05:25:56.866Z,84.88
2018-12-08T05:26:49.336Z,83.84
2018-12-08T05:27:41.521Z,83.45
2018-12-08T05:28:34.002Z,83.36
2018-12-08T05:29:27.603Z,83.17
2018-12-08T05:30:20.268Z,84.41
2018-12-08T05:31:12.883Z,84.41
2018-12-08T05:32:05.036Z,84.03
2018-12-08T05:32:58.646Z,83.45
2018-12-08T05:33:51.657Z,82.6
2018-12-08T05:34:44.689Z,81.84
2018-12-08T05:35:37.478Z,82.6
2018-12-08T05:36:29.646Z,82.12
2018-12-08T05:37:22.679Z,82.12
2018-12-08T05:38:15.062Z,82.89
2018-12-08T05:39:08.604Z,82.21
2018-12-08T05:40:00.664Z,82.31
2018-12-08T05:40:54.678Z,83.07
2018-12-08T05:41:47.546Z,83.17
2018-12-08T05:42:39.868Z,84.6
2018-12-08T05:43:33.490Z,83.26
2018-12-08T05:44:27.654Z,83.74
2018-12-08T05:45:21.607Z,83.17
2018-12-08T05:46:14.280Z,83.07
2018-12-08T05:47:09.087Z,82.98
2018-12-08T05:48:02.982Z,82.31
2018-12-08T05:48:55.983Z,82.21
2018-12-08T05:49:51.541Z,82.41
2018-12-08T05:50:47.723Z,82.5
2018-12-08T05:51:42.071Z,82.79
2018-12-08T05:52:36.381Z,83.26
2018-12-08T05:53:30.814Z,82.69
2018-12-08T05:54:24.046Z,82.31
2018-12-08T05:55:17.764Z,82.98
2018-12-08T05:56:12.642Z,83.26
2018-12-08T05:57:06.249Z,82.31
2018-12-08T05:57:59.714Z,82.69
2018-12-08T05:58:52.128Z,82.69
2018-12-08T05:59:44.410Z,82.89
2018-12-08T06:00:37.111Z,81.84
2018-12-08T06:01:29.621Z,82.31
2018-12-08T06:02:23.749Z,83.36
2018-12-08T06:03:16.624Z,82.46
2018-12-08T06:04:10.801Z,82.93
2018-12-08T06:05:06.556Z,82.84
2018-12-08T06:06:01.963Z,81.93
2018-12-08T06:06:55.411Z,83.36
2018-12-08T06:07:50.366Z,82.27
2018-12-08T06:08:43.727Z,82.46
2018-12-08T06:09:36.264Z,84.65
2018-12-08T06:10:30.746Z,83.32
2018-12-08T06:11:24.008Z,83.22
2018-12-08T06:12:17.639Z,82.75
2018-12-08T06:13:10.387Z,83.03
2018-12-08T06:14:04.137Z,82.46
2018-12-08T06:14:57.110Z,81.7
2018-12-08T06:15:50.599Z,82.56
2018-12-08T06:16:43.425Z,83.03
2018-12-08T06:17:37.837Z,83.32
2018-12-08T06:21:35.244Z,82.46
2018-12-08T06:22:32.326Z,84.46
2018-12-08T06:23:24.240Z,83.51
2018-12-08T06:24:18.121Z,83.41
2018-12-08T06:25:11.859Z,83.8
2018-12-08T06:26:04.636Z,84.27
2018-12-08T06:26:58.192Z,84.94
2018-12-08T06:27:51.926Z,85.6
2018-12-08T06:28:43.913Z,85.32
2018-12-08T06:29:36.136Z,84.84
2018-12-08T06:30:28.244Z,84.84
2018-12-08T06:31:23.684Z,85.41
2018-12-08T06:32:16.066Z,85.89
2018-12-08T06:33:08.075Z,86.27
2018-12-08T06:34:00.025Z,86.46
2018-12-08T06:34:52.635Z,86.75
2018-12-08T06:35:47.987Z,86.55
2018-12-08T06:36:42.246Z,86.65
2018-12-08T06:37:36.529Z,86.84
2018-12-08T06:38:30.156Z,87.51
2018-12-08T06:39:23.377Z,87.03
2018-12-08T06:40:17.613Z,86.55
2018-12-08T06:41:11.686Z,86.27
2018-12-08T06:42:06.395Z,87.7
2018-12-08T06:43:00.348Z,87.51
2018-12-08T06:43:53.565Z,87.41
2018-12-08T06:44:47.746Z,86.27
2018-12-08T06:45:40.155Z,85.32
2018-12-08T06:46:32.541Z,85.7
2018-12-08T06:47:27.194Z,85.99
2018-12-08T06:48:21.049Z,86.08
2018-12-08T06:49:14.718Z,85.51
2018-12-08T06:50:08.095Z,86.36
2018-12-08T06:51:03.944Z,86.36
2018-12-08T06:53:31.228Z,85.32
2018-12-08T06:54:24.165Z,85.32
2018-12-08T06:55:19.820Z,85.51
2018-12-08T06:56:12.520Z,84.75
2018-12-08T06:57:06.793Z,85.6
2018-12-08T06:59:03.438Z,85.17
2018-12-08T06:59:56.452Z,84.17
2018-12-08T07:00:50.201Z,84.36
2018-12-08T07:01:43.431Z,83.7
2018-12-08T07:02:35.756Z,83.8
2018-12-08T07:03:30.264Z,84.46
2018-12-08T07:04:23.995Z,84.94
2018-12-08T07:05:17.356Z,83.98
2018-12-08T07:06:12.217Z,84.08
2018-12-08T07:07:06.553Z,84.08
2018-12-08T07:07:59.195Z,84.65
2018-12-08T07:08:53.451Z,84.08
2018-12-08T07:09:46.556Z,84.75
2018-12-08T07:10:39.090Z,84.94
2018-12-08T07:11:31.269Z,85.8
2018-12-08T07:12:23.465Z,84.08
2018-12-08T07:13:19.183Z,83.8
2018-12-08T07:14:11.757Z,83.98
2018-12-08T07:15:05.923Z,83.8
2018-12-08T07:16:00.105Z,83.98
2018-12-08T07:18:34.183Z,85.46
2018-12-08T07:19:27.752Z,84.27
2018-12-08T07:20:21.189Z,85.99
2018-12-08T07:21:14.438Z,86.27
2018-12-08T07:22:07.478Z,86.65
2018-12-08T07:23:01.771Z,85.8
2018-12-08T07:23:53.863Z,86.55
2018-12-08T07:24:47.859Z,85.6
2018-12-08T07:25:41.433Z,85.8
2018-12-08T07:26:33.133Z,85.99
2018-12-08T07:27:26.995Z,86.08
2018-12-08T07:28:21.269Z,83.98
2018-12-08T07:29:12.902Z,84.65
2018-12-08T07:30:06.821Z,84.12
2018-12-08T07:31:04.121Z,83.41
2018-12-08T07:31:56.782Z,83.61
2018-12-08T07:32:51.933Z,83.98
2018-12-08T07:33:47.501Z,85.51
2018-12-08T07:34:43.560Z,84.27
2018-12-08T07:35:38.955Z,83.89
2018-12-08T07:36:31.707Z,85.13
2018-12-08T07:37:25.063Z,83.98
2018-12-08T07:38:19.669Z,85.13
2018-12-08T07:39:14.314Z,85.03
2018-12-08T07:40:06.746Z,85.17
2018-12-08T07:40:59.115Z,84.94
2018-12-08T07:43:33.136Z,85.17
2018-12-08T07:44:27.584Z,84.98
2018-12-08T07:45:20.905Z,84.69
2018-12-08T07:46:14.940Z,84.75
2018-12-08T07:47:09.437Z,85.74
2018-12-08T07:48:03.837Z,84.03
2018-12-08T07:48:56.187Z,84.79
2018-12-08T07:49:48.630Z,83.26
2018-12-08T07:50:40.879Z,83.74
2018-12-08T07:51:34.956Z,83.98
2018-12-08T07:52:27.410Z,83.98
2018-12-08T07:53:19.885Z,85.27
2018-12-08T07:54:13.602Z,84.56
2018-12-08T07:55:06.110Z,84.88
2018-12-08T07:55:58.523Z,85.17
2018-12-08T07:56:51.586Z,84.5
2018-12-08T07:57:45.564Z,85.64
2018-12-08T07:58:39.865Z,85.55
2018-12-08T07:59:32.855Z,85.46
2018-12-08T08:00:26.492Z,85.64
2018-12-08T08:01:19.606Z,85.36
2018-12-08T08:02:12.239Z,85.27
2018-12-08T08:03:04.904Z,84.31
2018-12-08T08:03:58.288Z,85.64
2018-12-08T08:04:51.406Z,86.79
2018-12-08T08:05:43.787Z,86.69
2018-12-08T08:06:38.602Z,87.27
2018-12-08T08:07:32.227Z,86.79
2018-12-08T08:08:27.423Z,86.88
2018-12-08T08:09:19.791Z,87.27
2018-12-08T08:10:14.379Z,87.55
2018-12-08T08:11:07.608Z,87.84
2018-12-08T08:11:59.910Z,87.07
2018-12-08T08:12:52.513Z,88.12
2018-12-08T08:13:45.187Z,88.51
2018-12-08T08:14:37.527Z,87.74
2018-12-08T08:15:30.685Z,86.88
2018-12-08T08:16:24.262Z,86.69
2018-12-08T08:17:16.733Z,85.64
2018-12-08T08:18:08.571Z,85.74
2018-12-08T08:19:00.466Z,86.41
2018-12-08T08:19:53.942Z,86.69
2018-12-08T08:20:46.443Z,87.36
2018-12-08T08:21:39.048Z,86.98
2018-12-08T08:22:33.321Z,87.74
2018-12-08T08:23:26.069Z,87.84
2018-12-08T08:24:18.447Z,86.98
2018-12-08T08:25:10.585Z,86.55
2018-12-08T08:26:02.595Z,86.36
2018-12-08T08:26:58.298Z,87.4
2018-12-08T08:27:48.361Z,87.12
2018-12-08T08:28:28.689Z,86.69
2018-12-08T08:29:09.176Z,86.41
2018-12-08T08:29:49.791Z,86.6
2018-12-08T08:30:30.182Z,86.51
2018-12-08T08:31:10.749Z,86.32
2018-12-08T08:31:50.971Z,86.32
2018-12-08T08:32:32.637Z,85.46
2018-12-08T08:33:13.111Z,85.88
2018-12-08T08:33:53.658Z,84.55
2018-12-08T08:34:34.030Z,84.16
2018-12-08T08:35:15.269Z,83.69
2018-12-08T08:35:55.820Z,82.83
2018-12-08T08:36:37.019Z,81.44
2018-12-08T08:37:17.342Z,80.87
2018-12-08T08:37:57.874Z,80.3
2018-12-08T08:38:38.239Z,79.82
2018-12-08T08:39:19.913Z,79.67
2018-12-08T08:39:59.942Z,79.38
2018-12-08T08:40:41.182Z,79
2018-12-08T08:41:21.819Z,78.43
2018-12-08T08:42:03.040Z,76.37
2018-12-08T08:42:47.235Z,76.65
2018-12-08T08:43:28.318Z,75.32
2018-12-08T08:44:08.869Z,75.51
2018-12-08T08:44:49.260Z,75.42
2018-12-08T08:45:38.964Z,75.79
2018-12-08T08:46:22.661Z,76.08
2018-12-08T08:47:03.054Z,76.14
2018-12-08T08:47:44.856Z,76.33
2018-12-08T08:48:24.980Z,76.42
2018-12-08T08:49:05.520Z,77.86
2018-12-08T08:49:45.925Z,79.06
2018-12-08T08:50:26.830Z,78.77
2018-12-08T08:51:07.586Z,79.35
2018-12-08T08:51:49.110Z,79.35
2018-12-08T08:52:29.909Z,79.91
2018-12-08T08:53:11.434Z,80.2
2018-12-08T08:53:51.814Z,80.68
2018-12-08T08:54:32.250Z,80.11
2018-12-08T08:55:13.915Z,80.3
2018-12-08T08:55:55.818Z,80.96
2018-12-08T08:56:35.936Z,81.35
2018-12-08T08:57:16.418Z,80.96
2018-12-08T08:57:57.075Z,80.49
2018-12-08T08:58:38.052Z,80.87
2018-12-08T08:59:18.552Z,81.63
2018-12-08T08:59:59.246Z,81.06
2018-12-08T09:00:41.279Z,81.92
2018-12-08T09:01:21.689Z,81.73
2018-12-08T09:02:03.745Z,82.2
2018-12-08T09:02:44.192Z,82.59
2018-12-08T09:03:25.898Z,82.01
2018-12-08T09:04:07.830Z,81.73
2018-12-08T09:04:48.891Z,83.31
2018-12-08T09:05:29.690Z,83.12
2018-12-08T09:06:11.577Z,83.4
2018-12-08T09:06:52.182Z,82.49
2018-12-08T09:07:33.400Z,81.82
2018-12-08T09:08:14.027Z,81.92
2018-12-08T09:08:54.222Z,81.44
2018-12-08T09:09:35.107Z,80.87
2018-12-08T09:10:17.127Z,80.2
2018-12-08T09:10:57.816Z,81.15
2018-12-08T09:11:38.362Z,81.54
2018-12-08T09:12:19.207Z,82.4
2018-12-08T09:13:00.260Z,81.15
2018-12-08T09:13:41.816Z,81.92
2018-12-08T09:14:22.418Z,81.15
2018-12-08T09:15:02.722Z,81.44
2018-12-08T09:15:44.297Z,81.44
2018-12-08T09:16:24.838Z,80.87
2018-12-08T09:17:05.215Z,81.44
2018-12-08T09:17:45.752Z,81.25
2018-12-08T09:18:26.396Z,81.63
2018-12-08T09:19:08.791Z,81.25
2018-12-08T09:19:49.168Z,81.54
2018-12-08T09:20:31.365Z,81.92
2018-12-08T09:21:11.733Z,81.73
2018-12-08T09:21:52.575Z,82.49
2018-12-08T09:22:33.723Z,82.3
2018-12-08T09:23:14.411Z,81.92
2018-12-08T09:23:55.441Z,81.82
2018-12-08T09:24:35.914Z,81.35
2018-12-08T09:25:16.476Z,82.11
2018-12-08T09:25:57.406Z,82.87
2018-12-08T09:26:38.033Z,83.54
2018-12-08T09:27:18.946Z,85.54
2018-12-08T09:28:00.321Z,87.02
2018-12-08T09:28:41.872Z,87.6
2018-12-08T09:29:23.411Z,88.26
2018-12-08T09:30:04.957Z,88.64
2018-12-08T09:30:45.679Z,88.17
2018-12-08T09:31:26.752Z,87.98
2018-12-08T09:32:08.728Z,87.12
2018-12-08T09:32:49.037Z,87.6
2018-12-08T09:33:30.546Z,87.5
2018-12-08T09:34:10.872Z,86.55
2018-12-08T09:34:53.704Z,87.12
2018-12-08T09:35:35.969Z,87.69
2018-12-08T09:36:16.384Z,88.26
2018-12-08T09:36:57.722Z,88.26
2018-12-08T09:37:38.775Z,87.88
2018-12-08T09:38:19.812Z,87.31
2018-12-08T09:39:00.660Z,87.12
2018-12-08T09:39:41.450Z,87.98
2018-12-08T09:40:22.170Z,87.4
2018-12-08T09:41:02.875Z,87.21
2018-12-08T09:41:46.641Z,86.65
2018-12-08T09:42:27.154Z,85.6
2018-12-08T09:43:07.746Z,85.5
2018-12-08T09:43:47.974Z,86.26
2018-12-08T09:44:28.451Z,85.97
2018-12-08T09:45:08.913Z,85.64
2018-12-08T09:45:49.411Z,86.69
2018-12-08T09:46:30.005Z,85.83
2018-12-08T09:47:10.738Z,85.64
2018-12-08T09:47:51.142Z,85.73
2018-12-08T09:48:31.667Z,84.78
2018-12-08T09:49:12.467Z,84.97
2018-12-08T09:49:53.726Z,86.26
2018-12-08T09:50:35.414Z,87.12
2018-12-08T09:51:15.691Z,87.69
2018-12-08T09:51:56.361Z,88.07
2018-12-08T09:52:36.798Z,88.45
2018-12-08T09:53:17.200Z,88.26
2018-12-08T09:53:57.675Z,87.6
2018-12-08T09:54:38.697Z,87.12
2018-12-08T09:55:19.441Z,86.93
2018-12-08T09:56:00.354Z,87.21
2018-12-08T09:56:40.952Z,87.5
2018-12-08T09:57:23.026Z,87.21
2018-12-08T09:58:05.421Z,86.74
2018-12-08T09:58:46.823Z,86.83
2018-12-08T09:59:27.448Z,86.36
2018-12-08T10:00:08.411Z,85.78
2018-12-08T10:00:48.749Z,86.4
2018-12-08T10:01:30.278Z,86.78
2018-12-08T10:02:10.487Z,85.97
2018-12-08T10:02:50.975Z,86.07
2018-12-08T10:03:31.688Z,85.31
2018-12-08T10:04:13.478Z,85.21
2018-12-08T10:04:54.743Z,86.16
2018-12-08T10:05:35.426Z,84.83
2018-12-08T10:06:16.152Z,85.69
2018-12-08T10:06:57.374Z,85.69
2018-12-08T10:07:37.862Z,84.45
2018-12-08T10:08:18.485Z,84.07
2018-12-08T10:08:59.079Z,84.55
2018-12-08T10:09:40.990Z,83.88
2018-12-08T10:10:21.920Z,84.83
2018-12-08T10:11:02.557Z,84.45
2018-12-08T10:11:43.181Z,84.55
2018-12-08T10:12:23.512Z,85.02
2018-12-08T10:13:03.960Z,85.02
2018-12-08T10:13:44.835Z,85.31
2018-12-08T10:14:25.367Z,84.74
2018-12-08T10:15:06.023Z,85.02
2018-12-08T10:15:47.333Z,83.69
2018-12-08T10:16:27.808Z,83.97
2018-12-08T10:17:08.268Z,84.78
2018-12-08T10:17:50.097Z,84.07
2018-12-08T10:18:30.511Z,84.83
2018-12-08T10:19:11.388Z,84.88
2018-12-08T10:19:51.672Z,84.11